Time;durP1;ratioP1;P1;durP2;ratioP2;P2;SDS_P1;SDS_P2;PMS_P1;PMS_P2;Temp;Humidity;BMP_temperature;BMP_pressure;BME280_temperature;BME280_humidity;BME280_pressure;Samples;Min_cycle;Max_cycle;Signal;HPM_P1;HPM_P2
2024/01/17 00:00:13;;;;;;;9.80;8.13;;;-1.10;99.90;;;;;;5025443;28;20479;-62
2024/01/17 00:02:38;;;;;;;9.87;6.60;;;-1.10;99.90;;;;;;5021436;28;20223;-62
2024/01/17 00:05:04;;;;;;;11.50;7.83;;;-1.10;99.90;;;;;;5016065;28;20964;-61
2024/01/17 00:07:30;;;;;;;10.43;7.20;;;-1.10;99.90;;;;;;5014241;28;20623;-60
2024/01/17 00:09:55;;;;;;;14.73;7.57;;;-1.20;99.90;;;;;;5003832;28;20431;-57
2024/01/17 00:12:21;;;;;;;10.20;7.33;;;-1.20;99.90;;;;;;5011420;28;20271;-57
2024/01/17 00:14:47;;;;;;;13.27;7.70;;;-1.20;99.90;;;;;;5013527;28;20176;-57
2024/01/17 00:17:12;;;;;;;12.53;7.60;;;-1.20;99.90;;;;;;5020441;28;20192;-63
2024/01/17 00:19:38;;;;;;;11.93;8.10;;;-1.20;99.90;;;;;;5011954;28;20536;-61
2024/01/17 00:22:05;;;;;;;16.60;8.20;;;-1.20;99.90;;;;;;5016718;28;20211;-61
2024/01/17 00:24:30;;;;;;;12.23;7.57;;;-1.30;99.90;;;;;;5013888;28;20538;-63
2024/01/17 00:26:56;;;;;;;15.87;7.30;;;-1.20;99.90;;;;;;5014628;28;20270;-60
2024/01/17 00:29:22;;;;;;;11.67;8.40;;;-1.20;99.90;;;;;;5010899;28;20172;-62
2024/01/17 00:31:48;;;;;;;12.77;7.73;;;-1.30;99.90;;;;;;5011490;28;20415;-60
2024/01/17 00:34:13;;;;;;;14.67;7.80;;;-1.30;99.90;;;;;;5012023;28;20427;-60
2024/01/17 00:36:39;;;;;;;12.53;8.10;;;-1.30;99.90;;;;;;5013207;28;20192;-61
2024/01/17 00:39:04;;;;;;;14.03;7.43;;;-1.30;99.90;;;;;;5013269;28;20175;-62
2024/01/17 00:41:30;;;;;;;9.00;7.50;;;-1.40;99.90;;;;;;5017141;28;20310;-59
2024/01/17 00:43:55;;;;;;;17.60;7.13;;;-1.40;99.90;;;;;;5010031;28;20200;-59
2024/01/17 00:46:21;;;;;;;14.40;7.33;;;-1.40;99.90;;;;;;5010984;28;20204;-61
2024/01/17 00:48:47;;;;;;;10.30;7.43;;;-1.50;99.90;;;;;;5015078;28;20176;-61
2024/01/17 00:51:24;;;;;;;12.20;7.30;;;-1.50;99.90;;;;;;5015496;28;20640;-61
2024/01/17 00:53:49;;;;;;;13.33;7.13;;;-1.50;99.90;;;;;;5011608;28;20183;-59
2024/01/17 00:56:16;;;;;;;11.33;6.50;;;-1.50;99.90;;;;;;5010480;28;20457;-62
2024/01/17 00:58:41;;;;;;;10.53;7.27;;;-1.50;99.90;;;;;;5017541;28;20179;-58
2024/01/17 01:01:07;;;;;;;10.60;8.00;;;-1.50;99.90;;;;;;5013247;28;20798;-62
2024/01/17 01:03:32;;;;;;;12.43;7.40;;;-1.50;99.90;;;;;;5013031;28;20179;-62
2024/01/17 01:06:00;;;;;;;11.77;8.17;;;-1.60;99.90;;;;;;5016241;28;20275;-60
2024/01/17 01:08:26;;;;;;;7.60;5.73;;;-1.60;99.90;;;;;;5019852;28;20317;-64
2024/01/17 01:10:51;;;;;;;10.93;7.27;;;-1.60;99.90;;;;;;5015524;28;20490;-63
2024/01/17 01:13:17;;;;;;;11.30;8.87;;;-1.70;99.90;;;;;;5016287;28;20167;-64
2024/01/17 01:15:43;;;;;;;14.53;7.57;;;-1.70;99.90;;;;;;5017791;28;20292;-63
2024/01/17 01:18:08;;;;;;;8.37;6.47;;;-1.80;99.90;;;;;;5019495;28;20191;-60
2024/01/17 01:20:34;;;;;;;8.67;7.67;;;-1.70;99.90;;;;;;5010959;28;20180;-63
2024/01/17 01:22:59;;;;;;;9.30;6.60;;;-1.80;99.90;;;;;;5019380;28;20263;-64
2024/01/17 01:25:26;;;;;;;11.27;7.47;;;-1.70;99.90;;;;;;5017300;28;20203;-62
2024/01/17 01:27:51;;;;;;;9.83;6.10;;;-1.80;99.90;;;;;;5021030;28;20207;-60
2024/01/17 01:30:17;;;;;;;10.93;6.97;;;-1.90;99.90;;;;;;5015556;28;21165;-61
2024/01/17 01:32:42;;;;;;;11.30;8.17;;;-1.90;99.90;;;;;;5018370;28;20176;-62
2024/01/17 01:35:08;;;;;;;10.90;7.97;;;-1.90;99.90;;;;;;5014485;28;20172;-64
2024/01/17 01:37:33;;;;;;;14.40;8.63;;;-2.00;99.90;;;;;;5014028;28;20184;-62
2024/01/17 01:39:59;;;;;;;14.27;7.70;;;-2.00;99.90;;;;;;5001549;28;20627;-57
2024/01/17 01:42:25;;;;;;;12.70;7.63;;;-2.00;99.90;;;;;;4977489;28;20176;-64
2024/01/17 01:44:50;;;;;;;11.67;8.17;;;-2.00;99.90;;;;;;5015089;28;20208;-63
2024/01/17 01:47:17;;;;;;;8.93;7.10;;;-2.00;99.90;;;;;;5013310;28;20219;-63
2024/01/17 01:49:42;;;;;;;12.87;7.13;;;-2.10;99.90;;;;;;5018599;28;20205;-59
2024/01/17 01:52:09;;;;;;;9.93;6.37;;;-2.10;99.90;;;;;;5012440;28;20944;-62
2024/01/17 01:54:37;;;;;;;12.10;7.90;;;-2.10;99.90;;;;;;5010116;28;20411;-64
2024/01/17 01:57:04;;;;;;;12.73;9.10;;;-2.10;99.90;;;;;;5004889;28;20522;-60
2024/01/17 01:59:30;;;;;;;12.83;7.77;;;-2.20;99.90;;;;;;5011098;28;20407;-60
2024/01/17 02:01:56;;;;;;;21.10;8.60;;;-2.20;99.90;;;;;;5013820;28;20771;-62
2024/01/17 02:04:22;;;;;;;10.10;6.90;;;-2.10;99.90;;;;;;5017585;28;20455;-64
2024/01/17 02:06:49;;;;;;;12.37;7.47;;;-2.10;99.90;;;;;;5017729;28;20439;-58
2024/01/17 02:09:15;;;;;;;13.60;7.40;;;-2.20;99.90;;;;;;5009936;28;20160;-61
2024/01/17 02:11:41;;;;;;;9.50;7.37;;;-2.20;99.90;;;;;;5014509;28;20507;-61
2024/01/17 02:14:07;;;;;;;14.67;9.23;;;-2.20;99.90;;;;;;5014657;28;20195;-61
2024/01/17 02:16:33;;;;;;;12.00;8.53;;;-2.20;99.90;;;;;;5024808;28;20195;-59
2024/01/17 02:18:59;;;;;;;9.70;8.13;;;-2.20;99.90;;;;;;5014830;28;20658;-61
2024/01/17 02:21:26;;;;;;;7.73;6.93;;;-2.30;99.90;;;;;;5017261;28;21122;-60
2024/01/17 02:23:52;;;;;;;12.77;7.37;;;-2.30;99.90;;;;;;5019814;28;20451;-60
2024/01/17 02:26:19;;;;;;;11.80;7.67;;;-2.30;99.90;;;;;;5018411;28;20929;-57
2024/01/17 02:28:44;;;;;;;13.60;9.20;;;-2.30;99.90;;;;;;5022115;28;20529;-61
2024/01/17 02:31:12;;;;;;;8.50;7.23;;;-2.40;99.90;;;;;;5016106;28;20981;-59
2024/01/17 02:33:38;;;;;;;14.77;7.97;;;-2.40;99.90;;;;;;5016471;28;20639;-61
2024/01/17 02:36:06;;;;;;;12.63;8.80;;;-2.40;99.90;;;;;;5017154;28;20881;-62
2024/01/17 02:38:32;;;;;;;9.17;6.97;;;-2.40;99.90;;;;;;5011380;28;20419;-58
2024/01/17 02:40:57;;;;;;;13.50;9.03;;;-2.40;99.90;;;;;;5006296;28;20796;-63
2024/01/17 02:43:23;;;;;;;14.83;8.23;;;-2.40;99.90;;;;;;4994426;28;20185;-63
2024/01/17 02:45:49;;;;;;;12.70;8.17;;;-2.50;99.90;;;;;;5007577;28;20760;-60
2024/01/17 02:48:14;;;;;;;16.67;8.50;;;-2.50;99.90;;;;;;5007517;28;20396;-61
2024/01/17 02:50:40;;;;;;;14.40;7.60;;;-2.50;99.90;;;;;;5011925;28;20176;-63
2024/01/17 02:53:06;;;;;;;8.73;7.57;;;-2.50;99.90;;;;;;5011075;28;20276;-63
2024/01/17 02:55:32;;;;;;;10.20;7.73;;;-2.50;99.90;;;;;;5012056;28;20232;-60
2024/01/17 02:58:00;;;;;;;10.70;8.20;;;-2.50;99.90;;;;;;5012441;28;20423;-62
2024/01/17 03:00:25;;;;;;;8.20;7.17;;;-2.40;99.90;;;;;;5012707;28;20180;-62
2024/01/17 03:02:51;;;;;;;10.33;7.70;;;-2.50;99.90;;;;;;5012866;28;20428;-58
2024/01/17 03:05:17;;;;;;;12.53;8.60;;;-2.40;99.90;;;;;;5001816;28;20215;-61
2024/01/17 03:07:42;;;;;;;12.07;7.67;;;-2.40;99.90;;;;;;5011431;28;20505;-62
2024/01/17 03:10:11;;;;;;;18.80;8.70;;;-2.40;99.90;;;;;;5015698;28;20175;-63
2024/01/17 03:12:37;;;;;;;17.23;8.30;;;-2.50;99.90;;;;;;5015852;28;20426;-62
2024/01/17 03:15:03;;;;;;;11.70;8.17;;;-2.50;99.90;;;;;;5012104;28;20430;-58
2024/01/17 03:17:29;;;;;;;12.13;7.50;;;-2.50;99.90;;;;;;5015383;28;20187;-59
2024/01/17 03:19:54;;;;;;;13.37;8.60;;;-2.60;99.90;;;;;;5011714;28;20918;-62
2024/01/17 03:22:20;;;;;;;11.00;7.10;;;-2.60;99.90;;;;;;5011788;28;20203;-62
2024/01/17 03:24:45;;;;;;;15.13;8.07;;;-2.60;99.90;;;;;;5011904;28;20811;-62
2024/01/17 03:27:12;;;;;;;11.57;8.40;;;-2.60;99.90;;;;;;5011041;28;20219;-62
2024/01/17 03:29:38;;;;;;;10.83;7.73;;;-2.50;99.90;;;;;;5012103;28;20569;-63
2024/01/17 03:32:04;;;;;;;17.67;7.73;;;-2.50;99.90;;;;;;5013614;28;20464;-63
2024/01/17 03:34:29;;;;;;;10.77;7.50;;;-2.60;99.90;;;;;;5012094;28;20181;-60
2024/01/17 03:36:55;;;;;;;12.70;9.33;;;-2.50;99.90;;;;;;5011759;28;20203;-59
2024/01/17 03:39:21;;;;;;;16.13;9.90;;;-2.60;99.90;;;;;;5013624;28;20220;-62
2024/01/17 03:41:46;;;;;;;13.93;8.70;;;-2.60;99.90;;;;;;5011671;28;20187;-63
2024/01/17 03:44:12;;;;;;;12.63;7.53;;;-2.70;99.90;;;;;;5011749;28;20536;-60
2024/01/17 03:46:37;;;;;;;12.53;7.93;;;-2.70;99.90;;;;;;5011606;28;20200;-62
2024/01/17 03:49:03;;;;;;;11.53;8.60;;;-2.70;99.90;;;;;;5011469;28;20246;-59
2024/01/17 03:51:28;;;;;;;17.43;9.17;;;-2.70;99.90;;;;;;5011477;28;20249;-62
2024/01/17 03:53:54;;;;;;;9.17;7.93;;;-2.70;99.90;;;;;;5011597;28;20264;-62
2024/01/17 03:56:20;;;;;;;16.40;9.13;;;-2.80;99.90;;;;;;5011356;28;20278;-58
2024/01/17 03:58:45;;;;;;;11.57;9.27;;;-2.70;99.90;;;;;;5010616;28;20184;-63
2024/01/17 04:01:12;;;;;;;12.10;8.90;;;-2.70;99.90;;;;;;5011363;28;20661;-62
2024/01/17 04:03:39;;;;;;;12.70;9.10;;;-2.70;99.90;;;;;;5011029;28;20272;-62
2024/01/17 04:06:05;;;;;;;10.00;8.30;;;-2.70;99.90;;;;;;5011101;28;20439;-62
2024/01/17 04:08:31;;;;;;;11.60;7.73;;;-2.70;99.90;;;;;;5011345;28;20783;-60
2024/01/17 04:10:57;;;;;;;12.50;8.97;;;-2.70;99.90;;;;;;5010943;28;20832;-62
2024/01/17 04:13:23;;;;;;;9.57;7.60;;;-2.70;99.90;;;;;;5011314;28;20862;-60
2024/01/17 04:15:48;;;;;;;12.17;7.87;;;-2.70;99.90;;;;;;5011054;28;20457;-59
2024/01/17 04:18:14;;;;;;;10.40;7.67;;;-2.70;99.90;;;;;;5011109;28;20176;-57
2024/01/17 04:20:39;;;;;;;10.80;7.67;;;-2.70;99.90;;;;;;5010762;28;20180;-59
2024/01/17 04:23:05;;;;;;;14.00;10.20;;;-2.80;99.90;;;;;;5010874;28;20181;-63
2024/01/17 04:25:31;;;;;;;11.07;8.20;;;-2.80;99.90;;;;;;5010839;28;20322;-62
2024/01/17 04:27:57;;;;;;;10.23;8.13;;;-2.90;99.90;;;;;;5009177;28;20527;-61
2024/01/17 04:30:22;;;;;;;9.43;7.90;;;-2.90;99.90;;;;;;5008739;28;20187;-59
2024/01/17 04:32:48;;;;;;;11.70;7.60;;;-2.90;99.90;;;;;;5008853;28;20226;-61
2024/01/17 04:35:18;;;;;;;11.40;7.80;;;-2.90;99.90;;;;;;5010666;28;20187;-61
2024/01/17 04:37:44;;;;;;;21.07;8.87;;;-2.90;99.90;;;;;;5007192;28;20191;-59
2024/01/17 04:40:10;;;;;;;11.67;8.67;;;-2.90;99.90;;;;;;5010620;28;20423;-62
2024/01/17 04:42:36;;;;;;;18.80;8.43;;;-3.00;99.90;;;;;;5004499;28;20238;-62
2024/01/17 04:45:03;;;;;;;9.50;7.50;;;-2.90;99.90;;;;;;5009926;28;20459;-61
2024/01/17 04:47:28;;;;;;;9.73;8.43;;;-3.00;99.90;;;;;;5010168;28;20168;-60
2024/01/17 04:49:54;;;;;;;13.83;9.27;;;-3.00;99.90;;;;;;5010145;28;20801;-63
2024/01/17 04:52:20;;;;;;;9.47;7.97;;;-3.00;99.90;;;;;;5008964;28;20180;-61
2024/01/17 04:54:45;;;;;;;11.27;7.80;;;-3.00;99.90;;;;;;5010138;28;20188;-61
2024/01/17 04:57:11;;;;;;;14.40;10.20;;;-3.00;99.90;;;;;;5010019;28;20216;-59
2024/01/17 04:59:39;;;;;;;13.67;9.40;;;-3.00;99.90;;;;;;5010433;28;20269;-63
2024/01/17 05:02:05;;;;;;;13.10;8.40;;;-3.00;99.90;;;;;;5010080;28;20579;-62
2024/01/17 05:04:30;;;;;;;9.40;8.40;;;-3.10;99.90;;;;;;5010442;28;20459;-62
2024/01/17 05:06:56;;;;;;;12.63;8.33;;;-3.10;99.90;;;;;;5003857;28;20223;-61
2024/01/17 05:09:22;;;;;;;16.03;9.30;;;-3.00;99.90;;;;;;5010127;28;20512;-62
2024/01/17 05:11:48;;;;;;;10.00;7.97;;;-3.10;99.90;;;;;;5011480;28;20182;-60
2024/01/17 05:14:14;;;;;;;13.97;8.53;;;-3.20;99.90;;;;;;5010187;28;20426;-61
2024/01/17 05:16:40;;;;;;;12.77;8.07;;;-3.20;99.90;;;;;;5011372;28;20693;-60
2024/01/17 05:19:06;;;;;;;19.40;8.70;;;-3.20;99.90;;;;;;5009654;28;20425;-59
2024/01/17 05:21:32;;;;;;;14.53;8.13;;;-3.10;99.90;;;;;;5010057;28;20423;-61
2024/01/17 05:23:57;;;;;;;17.60;9.00;;;-3.20;99.90;;;;;;5009894;28;20625;-62
2024/01/17 05:26:23;;;;;;;11.47;7.47;;;-3.10;99.90;;;;;;5009636;28;20450;-60
2024/01/17 05:28:48;;;;;;;12.07;9.33;;;-3.20;99.90;;;;;;5013751;28;20278;-63
2024/01/17 05:31:15;;;;;;;14.40;8.90;;;-3.20;99.90;;;;;;5009386;28;20184;-63
2024/01/17 05:33:41;;;;;;;18.90;9.67;;;-3.20;99.90;;;;;;5010051;28;20255;-61
2024/01/17 05:36:07;;;;;;;13.37;8.53;;;-3.20;99.90;;;;;;5009648;28;20820;-64
2024/01/17 05:38:33;;;;;;;10.67;8.97;;;-3.20;99.90;;;;;;5010046;28;20871;-64
2024/01/17 05:40:59;;;;;;;11.03;9.03;;;-3.20;99.90;;;;;;5009813;28;20469;-63
2024/01/17 05:43:25;;;;;;;11.83;8.60;;;-3.20;99.90;;;;;;5007510;28;20585;-64
2024/01/17 05:45:51;;;;;;;11.80;8.27;;;-3.30;99.90;;;;;;5009764;28;20467;-66
2024/01/17 05:48:17;;;;;;;10.30;7.13;;;-3.30;99.90;;;;;;5010082;28;20277;-63
2024/01/17 05:50:44;;;;;;;23.27;9.73;;;-3.20;99.90;;;;;;5009894;28;20919;-62
2024/01/17 05:53:10;;;;;;;15.03;7.77;;;-3.30;99.90;;;;;;4995177;28;20424;-62
2024/01/17 05:55:36;;;;;;;12.97;7.60;;;-3.30;99.90;;;;;;5009727;28;20454;-63
2024/01/17 05:58:02;;;;;;;12.13;8.13;;;-3.30;99.90;;;;;;5010142;28;20203;-59
2024/01/17 06:00:27;;;;;;;15.03;7.80;;;-3.40;99.90;;;;;;5009832;28;20188;-62
2024/01/17 06:02:53;;;;;;;9.90;7.20;;;-3.40;99.90;;;;;;5008144;28;20212;-60
2024/01/17 06:05:19;;;;;;;9.60;7.93;;;-3.40;99.90;;;;;;5009542;28;20667;-59
2024/01/17 06:07:44;;;;;;;9.87;8.33;;;-3.50;99.90;;;;;;5007537;28;20175;-60
2024/01/17 06:10:13;;;;;;;12.27;8.17;;;-3.40;99.90;;;;;;5009827;28;20659;-59
2024/01/17 06:12:40;;;;;;;22.03;8.73;;;-3.50;99.90;;;;;;5009454;28;20255;-62
2024/01/17 06:15:06;;;;;;;9.97;7.30;;;-3.50;99.90;;;;;;5009190;28;20419;-64
2024/01/17 06:17:32;;;;;;;8.87;6.67;;;-3.50;99.90;;;;;;5012099;28;20418;-62
2024/01/17 06:19:57;;;;;;;10.63;7.90;;;-3.50;99.90;;;;;;5009330;28;20427;-63
2024/01/17 06:22:23;;;;;;;9.43;7.13;;;-3.60;99.90;;;;;;5009507;28;20172;-59
2024/01/17 06:24:49;;;;;;;18.53;6.90;;;-3.60;99.90;;;;;;5008730;28;20288;-58
2024/01/17 06:27:15;;;;;;;11.30;6.53;;;-3.60;99.90;;;;;;5010897;28;20565;-59
2024/01/17 06:29:41;;;;;;;9.37;7.47;;;-3.50;99.90;;;;;;5008988;28;20179;-60
2024/01/17 06:32:07;;;;;;;11.03;8.40;;;-3.50;99.90;;;;;;5009027;28;20595;-60
2024/01/17 06:34:32;;;;;;;11.57;8.37;;;-3.50;99.90;;;;;;5007976;28;20522;-61
2024/01/17 06:36:58;;;;;;;8.33;7.50;;;-3.50;99.90;;;;;;5008588;28;20200;-61
2024/01/17 06:39:24;;;;;;;10.50;6.97;;;-3.50;99.90;;;;;;5008452;28;20185;-64
2024/01/17 06:41:50;;;;;;;11.90;7.23;;;-3.60;99.90;;;;;;5009362;28;20188;-59
2024/01/17 06:44:16;;;;;;;13.90;8.33;;;-3.60;99.90;;;;;;5006408;28;20451;-60
2024/01/17 06:46:41;;;;;;;9.77;7.10;;;-3.60;99.90;;;;;;5006918;28;20462;-57
2024/01/17 06:49:07;;;;;;;17.47;8.20;;;-3.40;99.90;;;;;;5005164;28;20523;-58
2024/01/17 06:51:32;;;;;;;16.80;9.03;;;-3.50;99.90;;;;;;5006941;28;20658;-56
2024/01/17 06:53:58;;;;;;;15.03;8.10;;;-3.50;99.90;;;;;;5006407;28;20196;-60
2024/01/17 06:56:24;;;;;;;17.83;7.80;;;-3.50;99.90;;;;;;5008495;28;20699;-59
2024/01/17 06:58:50;;;;;;;16.03;7.60;;;-3.50;99.90;;;;;;5008394;28;20514;-59
2024/01/17 07:01:16;;;;;;;17.37;10.43;;;-3.50;99.90;;;;;;4958681;28;20185;-57
2024/01/17 07:03:41;;;;;;;11.00;8.20;;;-3.50;99.90;;;;;;5012187;28;20415;-60
2024/01/17 07:06:07;;;;;;;9.30;7.53;;;-3.50;99.90;;;;;;5012361;28;20207;-58
2024/01/17 07:08:33;;;;;;;12.57;8.53;;;-3.40;99.90;;;;;;5013617;28;20215;-60
2024/01/17 07:10:59;;;;;;;14.43;7.73;;;-3.40;99.90;;;;;;5021165;28;20449;-62
2024/01/17 07:13:25;;;;;;;10.37;7.77;;;-3.40;99.90;;;;;;5007288;28;20180;-63
2024/01/17 07:15:50;;;;;;;10.57;7.43;;;-3.40;99.90;;;;;;5006070;28;20458;-62
2024/01/17 07:18:16;;;;;;;17.50;7.90;;;-3.30;99.90;;;;;;5017024;28;20616;-60
2024/01/17 07:20:41;;;;;;;7.80;7.03;;;-3.30;99.90;;;;;;5011691;28;20565;-62
2024/01/17 07:23:08;;;;;;;11.10;7.33;;;-3.30;99.90;;;;;;5002608;28;20184;-62
2024/01/17 07:25:34;;;;;;;11.50;7.90;;;-3.30;99.90;;;;;;5011166;28;20254;-60
2024/01/17 07:28:00;;;;;;;11.37;7.70;;;-3.30;99.90;;;;;;5009934;28;20415;-61
2024/01/17 07:30:26;;;;;;;10.17;7.73;;;-3.30;99.90;;;;;;5011048;28;20176;-60
2024/01/17 07:32:51;;;;;;;12.47;9.13;;;-3.30;99.90;;;;;;5012239;28;20182;-62
2024/01/17 07:35:17;;;;;;;14.73;8.33;;;-3.30;99.90;;;;;;5004826;28;20412;-65
2024/01/17 07:37:43;;;;;;;13.13;7.50;;;-3.20;99.90;;;;;;5012346;28;20183;-59
2024/01/17 07:40:09;;;;;;;10.27;6.93;;;-3.20;99.90;;;;;;5007205;28;20258;-64
2024/01/17 07:42:35;;;;;;;11.17;7.30;;;-3.20;99.90;;;;;;5011253;28;20176;-62
2024/01/17 07:45:01;;;;;;;13.57;7.37;;;-3.20;99.90;;;;;;5008717;28;20965;-61
2024/01/17 07:47:26;;;;;;;8.30;6.50;;;-3.20;99.90;;;;;;5011246;28;20216;-62
2024/01/17 07:49:52;;;;;;;11.43;7.50;;;-3.20;99.90;;;;;;5008303;28;20454;-60
2024/01/17 07:52:17;;;;;;;6.80;5.77;;;-3.10;99.90;;;;;;5010992;28;20235;-60
2024/01/17 07:54:43;;;;;;;9.57;7.07;;;-3.10;99.90;;;;;;5011580;28;20694;-62
2024/01/17 07:57:09;;;;;;;8.53;6.17;;;-3.00;99.90;;;;;;5010932;28;20203;-58
2024/01/17 07:59:34;;;;;;;9.43;7.17;;;-3.00;99.90;;;;;;5011177;28;20168;-57
2024/01/17 08:02:00;;;;;;;11.50;7.57;;;-3.00;99.90;;;;;;4990149;28;20207;-61
2024/01/17 08:04:25;;;;;;;10.00;7.33;;;-2.90;99.90;;;;;;5007370;28;20208;-61
2024/01/17 08:06:51;;;;;;;13.37;8.63;;;-2.80;99.90;;;;;;5006749;28;20532;-59
2024/01/17 08:09:26;;;;;;;11.00;7.67;;;-2.80;99.90;;;;;;5010813;28;20168;-60
2024/01/17 08:11:53;;;;;;;16.30;8.90;;;-2.60;99.90;;;;;;5010387;28;20253;-62
2024/01/17 08:14:19;;;;;;;10.10;6.17;;;-2.60;99.90;;;;;;5010747;28;20438;-58
2024/01/17 08:16:46;;;;;;;6.53;5.80;;;-2.50;99.90;;;;;;4989671;28;20985;-60
2024/01/17 08:19:12;;;;;;;11.00;7.27;;;-2.40;99.90;;;;;;5008750;28;20262;-62
2024/01/17 08:21:38;;;;;;;7.83;6.13;;;-2.30;99.90;;;;;;5013425;28;20414;-63
2024/01/17 08:24:04;;;;;;;8.73;6.97;;;-2.20;99.90;;;;;;5010803;28;20439;-61
2024/01/17 08:26:29;;;;;;;11.03;6.73;;;-2.20;99.90;;;;;;5010418;28;20192;-60
2024/01/17 08:28:55;;;;;;;7.90;6.17;;;-2.00;99.90;;;;;;5011533;28;20209;-60
2024/01/17 08:31:21;;;;;;;7.73;7.03;;;-1.90;99.90;;;;;;5010954;28;20180;-61
2024/01/17 08:33:46;;;;;;;10.57;6.03;;;-1.60;99.90;;;;;;5010678;28;20289;-61
2024/01/17 08:36:14;;;;;;;8.80;7.20;;;-1.60;99.90;;;;;;5010703;28;20184;-63
2024/01/17 08:38:43;;;;;;;15.07;6.60;;;-1.40;99.90;;;;;;5014249;28;20304;-63
2024/01/17 08:41:09;;;;;;;11.27;6.30;;;-1.40;99.90;;;;;;5010161;28;20410;-64
2024/01/17 08:43:35;;;;;;;13.30;6.60;;;-1.30;99.90;;;;;;5011033;28;20407;-62
2024/01/17 08:46:01;;;;;;;9.40;5.70;;;-1.50;99.90;;;;;;5011904;28;20484;-64
2024/01/17 08:48:27;;;;;;;8.90;5.53;;;-1.40;99.90;;;;;;5012154;28;20177;-61
2024/01/17 08:50:53;;;;;;;10.10;6.73;;;-1.20;99.90;;;;;;5010794;28;20414;-64
2024/01/17 08:53:19;;;;;;;9.53;5.80;;;-0.90;99.90;;;;;;5010581;28;20259;-65
2024/01/17 08:55:45;;;;;;;6.27;5.67;;;-0.90;99.90;;;;;;5010971;28;20598;-64
2024/01/17 08:58:11;;;;;;;8.90;6.20;;;-0.90;99.90;;;;;;5010613;28;20423;-64
2024/01/17 09:00:37;;;;;;;8.20;5.50;;;-0.70;99.90;;;;;;5010180;28;20411;-60
2024/01/17 09:03:04;;;;;;;6.23;5.47;;;-0.80;99.90;;;;;;5010484;28;20473;-65
2024/01/17 09:05:29;;;;;;;8.33;6.23;;;-0.70;99.90;;;;;;5010533;28;20210;-63
2024/01/17 09:07:56;;;;;;;12.37;5.83;;;-0.70;99.90;;;;;;5010510;28;20775;-63
2024/01/17 09:10:23;;;;;;;12.20;6.37;;;-0.40;99.90;;;;;;5009421;28;20430;-62
2024/01/17 09:12:49;;;;;;;10.47;7.00;;;-0.40;99.90;;;;;;5032991;22;20527;-61
2024/01/17 09:15:15;;;;;;;6.80;5.90;;;-0.30;99.90;;;;;;5046165;28;20495;-59
2024/01/17 09:17:40;;;;;;;8.80;6.00;;;-0.30;99.90;;;;;;5030137;28;20939;-60
2024/01/17 09:20:07;;;;;;;7.23;4.63;;;-0.20;99.90;;;;;;5034142;28;20214;-59
2024/01/17 09:22:32;;;;;;;7.57;5.70;;;-0.40;99.90;;;;;;5034886;28;20290;-60
2024/01/17 09:25:01;;;;;;;6.90;5.30;;;-0.60;99.90;;;;;;5030382;28;20554;-59
2024/01/17 09:27:29;;;;;;;9.13;6.73;;;-0.60;99.90;;;;;;5030938;28;20406;-60
2024/01/17 09:29:56;;;;;;;12.83;6.23;;;-0.40;99.90;;;;;;5031228;28;20491;-60
2024/01/17 09:32:22;;;;;;;6.70;5.17;;;-0.50;99.90;;;;;;5037135;28;20932;-60
2024/01/17 09:34:47;;;;;;;7.53;5.90;;;-0.60;99.90;;;;;;5031355;28;20418;-60
2024/01/17 09:37:16;;;;;;;11.60;6.87;;;-0.50;99.90;;;;;;5030976;28;20201;-61
2024/01/17 09:39:43;;;;;;;12.20;6.80;;;-0.40;99.90;;;;;;5031271;28;20301;-62
2024/01/17 09:42:09;;;;;;;10.93;7.07;;;-0.50;99.90;;;;;;5030878;28;20425;-62
2024/01/17 09:44:35;;;;;;;12.47;6.50;;;-0.60;99.90;;;;;;5031152;28;20462;-63
2024/01/17 09:47:02;;;;;;;9.93;6.47;;;-0.80;99.90;;;;;;5031256;28;20254;-64
2024/01/17 09:49:28;;;;;;;8.33;6.10;;;-1.00;99.90;;;;;;5031071;28;20472;-63
2024/01/17 09:51:54;;;;;;;10.73;6.77;;;-1.00;99.90;;;;;;5032484;28;20402;-63
2024/01/17 09:54:24;;;;;;;10.83;7.00;;;-1.00;99.90;;;;;;5031016;28;20418;-67
2024/01/17 09:56:51;;;;;;;7.10;6.17;;;-1.00;99.90;;;;;;5024844;28;20429;-64
2024/01/17 09:59:23;;;;;;;9.93;6.53;;;-0.70;99.90;;;;;;5030598;28;20511;-64
2024/01/17 10:01:48;;;;;;;9.10;6.70;;;-0.70;99.90;;;;;;5031199;28;20480;-63
2024/01/17 10:04:15;;;;;;;9.70;5.63;;;-0.70;99.90;;;;;;5030673;28;20450;-60
2024/01/17 10:06:44;;;;;;;7.57;5.77;;;-0.50;99.90;;;;;;5030971;28;20259;-60
2024/01/17 10:09:10;;;;;;;10.17;6.93;;;-0.50;99.90;;;;;;5027383;28;20421;-57
2024/01/17 10:11:36;;;;;;;6.73;5.57;;;-0.40;99.90;;;;;;5028423;28;21091;-65
2024/01/17 10:14:02;;;;;;;16.53;8.73;;;-0.20;99.90;;;;;;5029944;28;20508;-58
2024/01/17 10:16:28;;;;;;;10.50;6.87;;;-0.20;99.90;;;;;;5031381;28;20653;-65
2024/01/17 10:18:54;;;;;;;10.47;6.83;;;-0.30;99.90;;;;;;5031187;28;20406;-69
2024/01/17 10:21:21;;;;;;;7.10;6.00;;;-0.30;99.90;;;;;;5030890;28;20196;-62
2024/01/17 10:23:47;;;;;;;11.00;7.00;;;-0.20;99.90;;;;;;5029881;28;20439;-59
2024/01/17 10:26:13;;;;;;;9.93;6.70;;;-0.30;99.90;;;;;;5013046;28;20410;-59
2024/01/17 10:28:39;;;;;;;6.83;5.63;;;-0.40;99.90;;;;;;5031119;28;20160;-57
2024/01/17 10:31:05;;;;;;;11.23;7.07;;;-0.50;99.90;;;;;;5023029;28;20507;-62
2024/01/17 10:33:32;;;;;;;7.57;6.70;;;-0.50;99.90;;;;;;5030628;28;20706;-59
2024/01/17 10:35:58;;;;;;;8.37;6.53;;;-0.20;99.90;;;;;;5033660;28;20422;-60
2024/01/17 10:38:29;;;;;;;12.53;6.00;;;-0.20;99.90;;;;;;5034219;28;20414;-60
2024/01/17 10:41:10;;;;;;;9.33;6.47;;;-0.10;99.90;;;;;;5033585;28;20453;-60
2024/01/17 10:43:56;;;;;;;11.87;7.30;;;-0.10;99.90;;;;;;5026902;28;20448;-61
2024/01/17 10:46:22;;;;;;;12.33;8.30;;;0.00;99.90;;;;;;5034430;28;20402;-61
2024/01/17 10:48:49;;;;;;;9.43;6.03;;;0.00;99.90;;;;;;5034291;28;20436;-67
2024/01/17 10:51:20;;;;;;;9.80;7.13;;;0.10;99.90;;;;;;5031907;28;20501;-56
2024/01/17 10:53:48;;;;;;;9.53;6.60;;;0.00;99.90;;;;;;5034625;28;20430;-64
2024/01/17 10:56:18;;;;;;;9.57;6.80;;;0.00;99.90;;;;;;5034971;28;20413;-70
2024/01/17 10:58:52;;;;;;;9.80;7.80;;;0.00;99.90;;;;;;5034409;28;20497;-60
2024/01/17 11:01:25;;;;;;;10.40;6.83;;;0.20;99.90;;;;;;5034315;28;20488;-59
2024/01/17 11:03:53;;;;;;;7.93;6.97;;;0.20;99.90;;;;;;5040541;28;20537;-60
2024/01/17 11:06:20;;;;;;;12.60;7.33;;;0.20;99.90;;;;;;5032707;28;20406;-60
2024/01/17 11:08:46;;;;;;;12.07;7.00;;;0.10;99.90;;;;;;5033946;28;20465;-61
2024/01/17 11:11:14;;;;;;;8.60;5.80;;;0.20;99.90;;;;;;5030678;28;20769;-61
2024/01/17 11:13:43;;;;;;;8.23;6.17;;;0.30;99.90;;;;;;5033735;28;20816;-63
2024/01/17 11:16:11;;;;;;;10.80;7.50;;;0.50;99.90;;;;;;5033885;28;20422;-60
2024/01/17 11:18:40;;;;;;;10.83;8.23;;;0.40;99.90;;;;;;5033661;28;20476;-60
2024/01/17 11:21:07;;;;;;;8.83;6.43;;;0.50;99.90;;;;;;5033572;28;20419;-59
2024/01/17 11:24:00;;;;;;;9.03;7.30;;;0.50;99.90;;;;;;5037951;28;20494;-59
2024/01/17 11:26:33;;;;;;;10.90;8.00;;;0.60;99.90;;;;;;5033613;28;20453;-59
2024/01/17 11:29:13;;;;;;;12.70;7.67;;;0.70;99.90;;;;;;5033737;28;20469;-59
2024/01/17 11:31:54;;;;;;;10.47;6.53;;;0.90;99.90;;;;;;5037070;28;20783;-61
2024/01/17 11:34:20;;;;;;;11.37;6.50;;;0.90;99.90;;;;;;5036230;28;20413;-60
2024/01/17 11:36:47;;;;;;;7.87;6.73;;;1.20;99.90;;;;;;5033589;28;20489;-60
2024/01/17 11:39:19;;;;;;;10.20;7.53;;;1.00;99.90;;;;;;5033239;28;20215;-60
2024/01/17 11:41:46;;;;;;;20.83;8.20;;;1.00;99.90;;;;;;5033282;28;20457;-59
2024/01/17 11:44:14;;;;;;;12.97;8.90;;;1.00;99.90;;;;;;5033063;28;20557;-60
2024/01/17 11:46:40;;;;;;;13.07;6.80;;;0.90;99.90;;;;;;5033515;28;20414;-60
2024/01/17 11:49:09;;;;;;;8.37;6.87;;;1.00;99.90;;;;;;5032623;28;20787;-60
2024/01/17 11:51:37;;;;;;;10.73;6.80;;;0.90;99.90;;;;;;5033683;28;20201;-61
2024/01/17 11:54:05;;;;;;;8.63;6.97;;;0.90;99.90;;;;;;5033162;28;20430;-61
2024/01/17 11:56:31;;;;;;;9.37;6.47;;;0.90;99.90;;;;;;5032903;28;20413;-61
2024/01/17 11:59:09;;;;;;;10.00;7.30;;;1.00;99.90;;;;;;5032825;28;20803;-62
2024/01/17 12:01:34;;;;;;;9.60;6.53;;;1.10;99.90;;;;;;5035328;28;20413;-60
2024/01/17 12:04:13;;;;;;;10.23;7.03;;;1.00;99.90;;;;;;5031657;28;20458;-61
2024/01/17 12:06:46;;;;;;;10.43;7.80;;;0.90;99.90;;;;;;5038468;28;20218;-61
2024/01/17 12:09:18;;;;;;;7.63;6.70;;;1.00;99.90;;;;;;5032732;28;20469;-60
2024/01/17 12:11:44;;;;;;;11.00;7.27;;;1.00;99.90;;;;;;5032840;28;20418;-60
2024/01/17 12:14:10;;;;;;;9.30;6.40;;;0.90;99.90;;;;;;5014022;28;20515;-61
2024/01/17 12:16:36;;;;;;;8.13;7.33;;;1.00;99.90;;;;;;5038055;28;20844;-61
2024/01/17 12:19:02;;;;;;;15.67;7.87;;;0.90;99.90;;;;;;5032877;28;20218;-61
2024/01/17 12:21:30;;;;;;;9.80;6.70;;;0.90;99.90;;;;;;5032653;28;20418;-61
2024/01/17 12:23:56;;;;;;;10.50;6.67;;;0.90;99.90;;;;;;5040872;28;20190;-61
2024/01/17 12:26:21;;;;;;;10.10;7.63;;;0.90;99.90;;;;;;5032900;28;20785;-61
2024/01/17 12:28:47;;;;;;;10.17;6.90;;;1.10;99.90;;;;;;5040918;28;20427;-61
2024/01/17 12:31:16;;;;;;;6.97;6.20;;;1.00;99.90;;;;;;5041027;28;20191;-61
2024/01/17 12:33:43;;;;;;;9.47;6.40;;;0.90;99.90;;;;;;5024814;28;20962;-61
2024/01/17 12:36:09;;;;;;;14.37;7.00;;;1.10;99.90;;;;;;5029590;28;20418;-60